| time (UTC) | temp C | wind direction | speed KPH | gust KPH | rain 1hr cm | rain 24hr cm | rain mn cm | humidity % | barometer mb |
| 20260506034351 | 16 | 244 | 3.2 | 4.8 | 0.00 | 0.00 | 0.00 | 75 | 1014.8 |
| 20260506033848 | 16 | 109 | 4.8 | 6.4 | 0.00 | 0.00 | 0.00 | 75 | 1014.5 |
| 20260506033345 | 16 | 88 | 0.0 | 0.0 | 0.00 | 0.00 | 0.00 | 75 | 1014.6 |
| 20260506032842 | 16 | 108 | 1.6 | 1.6 | 0.00 | 0.00 | 0.00 | 75 | 1014.5 |
| 20260506032339 | 16 | 149 | 3.2 | 4.8 | 0.00 | 0.00 | 0.00 | 75 | 1014.4 |
| 20260506031836 | 16 | 124 | 3.2 | 4.8 | 0.00 | 0.00 | 0.00 | 75 | 1014.3 |
| 20260506031333 | 16 | 120 | 14.5 | 20.9 | 0.00 | 0.00 | 0.00 | 74 | 1014.4 |
| 20260506030831 | 16 | 87 | 4.8 | 4.8 | 0.00 | 0.00 | 0.00 | 74 | 1014.0 |
| 20260506030329 | 16 | 116 | 1.6 | 1.6 | 0.00 | 0.00 | 0.00 | 74 | 1013.9 |
| 20260506025825 | 16 | 82 | 3.2 | 4.8 | 0.00 | 0.00 | 0.00 | 73 | 1013.9 |
| 20260506025321 | 16 | 281 | 3.2 | 6.4 | 0.00 | 0.00 | 0.00 | 73 | 1014.1 |
| 20260506024819 | 16 | 105 | 1.6 | 3.2 | 0.00 | 0.00 | 0.00 | 73 | 1014.1 |
| 20260506024315 | 16 | 188 | 3.2 | 3.2 | 0.00 | 0.00 | 0.00 | 72 | 1014.0 |
| 20260506023811 | 16 | 182 | 1.6 | 1.6 | 0.00 | 0.00 | 0.00 | 72 | 1013.9 |
| 20260506023309 | 16 | 192 | 6.4 | 9.7 | 0.00 | 0.00 | 0.00 | 72 | 1013.9 |
| 20260506022805 | 16 | 39 | 1.6 | 1.6 | 0.00 | 0.00 | 0.00 | 72 | 1013.8 |
| 20260506022305 | 17 | 88 | 3.2 | 4.8 | 0.00 | 0.00 | 0.00 | 71 | 1013.8 |
| 20260506021801 | 17 | 201 | 4.8 | 6.4 | 0.00 | 0.00 | 0.00 | 71 | 1013.9 |
| 20260506021258 | 17 | 258 | 4.8 | 6.4 | 0.00 | 0.00 | 0.00 | 71 | 1013.7 |
| 20260506020754 | 17 | 316 | 3.2 | 4.8 | 0.00 | 0.00 | 0.00 | 70 | 1013.8 |
| 20260506020252 | 17 | 165 | 6.4 | 9.7 | 0.00 | 0.00 | 0.00 | 69 | 1013.6 |
| 20260506015750 | 18 | 200 | 3.2 | 4.8 | 0.00 | 0.00 | 0.00 | 68 | 1013.6 |
| 20260506015247 | 18 | 205 | 8.0 | 11.3 | 0.00 | 0.00 | 0.00 | 68 | 1013.7 |
| 20260506014743 | 18 | 93 | 4.8 | 9.7 | 0.00 | 0.00 | 0.00 | 66 | 1013.6 |
| 20260506014240 | 18 | 118 | 3.2 | 6.4 | 0.00 | 0.00 | 0.00 | 67 | 1013.1 |
| 20260506013737 | 18 | 122 | 6.4 | 9.7 | 0.00 | 0.00 | 0.00 | 67 | 1013.5 |
| 20260506013234 | 18 | 155 | 8.0 | 24.1 | 0.00 | 0.00 | 0.00 | 67 | 1013.4 |
| 20260506012731 | 18 | 111 | 4.8 | 9.7 | 0.00 | 0.00 | 0.00 | 67 | 1013.4 |
| 20260506012228 | 19 | 193 | 6.4 | 6.4 | 0.00 | 0.00 | 0.00 | 65 | 1013.5 |
| 20260506011725 | 18 | 96 | 4.8 | 6.4 | 0.00 | 0.00 | 0.00 | 65 | 1013.3 |
| 20260506011221 | 19 | 141 | 1.6 | 1.6 | 0.00 | 0.00 | 0.00 | 65 | 1013.3 |
| 20260506010720 | 19 | 143 | 3.2 | 4.8 | 0.00 | 0.00 | 0.00 | 66 | 1013.0 |
| 20260506010217 | 20 | 184 | 4.8 | 9.7 | 0.00 | 0.00 | 0.00 | 63 | 1013.1 |
| 20260506005714 | 19 | 151 | 6.4 | 9.7 | 0.00 | 0.00 | 0.00 | 64 | 1013.1 |
| 20260506005211 | 20 | 111 | 3.2 | 6.4 | 0.00 | 0.00 | 0.00 | 62 | 1013.4 |
| 20260506004706 | 20 | 117 | 3.2 | 4.8 | 0.00 | 0.00 | 0.00 | 63 | 1013.3 |
| 20260506004204 | 20 | 132 | 3.2 | 4.8 | 0.00 | 0.00 | 0.00 | 62 | 1013.1 |
| 20260506003700 | 20 | 113 | 3.2 | 4.8 | 0.00 | 0.00 | 0.00 | 62 | 1013.0 |
| 20260506003157 | 20 | 167 | 1.6 | 3.2 | 0.00 | 0.00 | 0.00 | 62 | 1013.1 |
| 20260506002652 | 20 | 190 | 3.2 | 4.8 | 0.00 | 0.00 | 0.00 | 61 | 1013.4 |
| 20260506002149 | 20 | 83 | 3.2 | 4.8 | 0.00 | 0.00 | 0.00 | 62 | 1013.4 |
| 20260506001644 | 20 | 119 | 4.8 | 6.4 | 0.00 | 0.00 | 0.00 | 61 | 1013.0 |
| 20260506001142 | 20 | 180 | 1.6 | 3.2 | 0.00 | 0.00 | 0.00 | 61 | 1013.3 |
| 20260506000639 | 20 | 251 | 9.7 | 12.9 | 0.00 | 0.00 | 0.00 | 62 | 1013.3 |
| 20260506000136 | 21 | 202 | 3.2 | 4.8 | 0.00 | 0.00 | 0.00 | 60 | 1013.4 |
| 20260505235634 | 20 | 205 | 3.2 | 3.2 | 0.00 | 0.00 | 0.00 | 62 | 1013.4 |
| 20260505235131 | 21 | 129 | 3.2 | 3.2 | 0.00 | 0.00 | 0.00 | 60 | 1013.5 |
| 20260505234628 | 21 | 199 | 1.6 | 3.2 | 0.00 | 0.00 | 0.00 | 60 | 1013.4 |
| 20260505234125 | 21 | 250 | 4.8 | 6.4 | 0.00 | 0.00 | 0.00 | 60 | 1013.5 |
| 20260505233622 | 21 | 99 | 1.6 | 1.6 | 0.00 | 0.00 | 0.00 | 59 | 1013.5 |
| 20260505233120 | 21 | 190 | 3.2 | 3.2 | 0.00 | 0.00 | 0.00 | 60 | 1013.6 |
| 20260505232617 | 21 | 218 | 6.4 | 9.7 | 0.00 | 0.00 | 0.00 | 60 | 1013.4 |
| 20260505232115 | 21 | 188 | 3.2 | 3.2 | 0.00 | 0.00 | 0.00 | 60 | 1013.7 |
| 20260505231611 | 21 | 207 | 3.2 | 4.8 | 0.00 | 0.00 | 0.00 | 59 | 1013.8 |
| 20260505231110 | 21 | 184 | 3.2 | 3.2 | 0.00 | 0.00 | 0.00 | 60 | 1013.6 |
| 20260505230608 | 21 | 299 | 3.2 | 4.8 | 0.00 | 0.00 | 0.00 | 60 | 1013.5 |
| 20260505225600 | 21 | 101 | 6.4 | 11.3 | 0.00 | 0.00 | 0.00 | 59 | 1013.6 |
| 20260505225056 | 20 | 119 | 0.0 | 0.0 | 0.00 | 0.00 | 0.00 | 60 | 1013.7 |
| 20260505224553 | 20 | 101 | 4.8 | 6.4 | 0.00 | 0.00 | 0.00 | 60 | 1013.5 |
| 20260505224051 | 21 | 161 | 4.8 | 9.7 | 0.00 | 0.00 | 0.00 | 60 | 1013.8 |
| 20260505223548 | 21 | 113 | 1.6 | 3.2 | 0.00 | 0.00 | 0.00 | 60 | 1013.8 |
| 20260505223044 | 20 | 202 | 4.8 | 9.7 | 0.00 | 0.00 | 0.00 | 60 | 1013.9 |
| 20260505222540 | 21 | 266 | 8.0 | 9.7 | 0.00 | 0.00 | 0.00 | 60 | 1013.7 |
| 20260505222037 | 20 | 203 | 4.8 | 6.4 | 0.00 | 0.00 | 0.00 | 62 | 1014.0 |
| 20260505221534 | 20 | 192 | 6.4 | 11.3 | 0.00 | 0.00 | 0.00 | 60 | 1013.6 |
| 20260505221030 | 21 | 146 | 3.2 | 6.4 | 0.00 | 0.00 | 0.00 | 60 | 1013.8 |
| 20260505220527 | 21 | 59 | 3.2 | 4.8 | 0.00 | 0.00 | 0.00 | 60 | 1013.8 |
| 20260505220025 | 21 | 79 | 6.4 | 9.7 | 0.00 | 0.00 | 0.00 | 60 | 1013.9 |
| 20260505215523 | 20 | 204 | 3.2 | 4.8 | 0.00 | 0.00 | 0.00 | 60 | 1014.0 |
| 20260505215021 | 20 | 142 | 4.8 | 6.4 | 0.00 | 0.00 | 0.00 | 61 | 1014.0 |
| 20260505214519 | 20 | 99 | 6.4 | 6.4 | 0.00 | 0.00 | 0.00 | 60 | 1014.2 |
| 20260505214015 | 20 | 248 | 9.7 | 14.5 | 0.00 | 0.00 | 0.00 | 60 | 1014.0 |
| 20260505213513 | 20 | 132 | 4.8 | 6.4 | 0.00 | 0.00 | 0.00 | 61 | 1014.2 |
| 20260505213009 | 20 | 154 | 3.2 | 4.8 | 0.00 | 0.00 | 0.00 | 61 | 1014.2 |
| 20260505212506 | 20 | 144 | 4.8 | 6.4 | 0.00 | 0.00 | 0.00 | 61 | 1014.2 |
| 20260505212003 | 20 | 137 | 3.2 | 4.8 | 0.00 | 0.00 | 0.00 | 61 | 1014.3 |
| 20260505211500 | 20 | 251 | 8.0 | 9.7 | 0.00 | 0.00 | 0.00 | 63 | 1014.4 |
| 20260505210956 | 20 | 104 | 6.4 | 9.7 | 0.00 | 0.00 | 0.00 | 60 | 1014.2 |
| 20260505210453 | 20 | 119 | 3.2 | 4.8 | 0.00 | 0.00 | 0.00 | 62 | 1014.4 |
| 20260505205950 | 21 | 166 | 4.8 | 6.4 | 0.00 | 0.00 | 0.00 | 61 | 1014.4 |
| 20260505205449 | 20 | 197 | 6.4 | 9.7 | 0.00 | 0.00 | 0.00 | 63 | 1014.5 |
| 20260505204945 | 20 | 259 | 8.0 | 9.7 | 0.00 | 0.00 | 0.00 | 61 | 1014.4 |
| 20260505204443 | 20 | 211 | 6.4 | 6.4 | 0.00 | 0.00 | 0.00 | 63 | 1014.5 |
| 20260505203940 | 20 | 106 | 6.4 | 6.4 | 0.00 | 0.00 | 0.00 | 62 | 1014.6 |
| 20260505203436 | 20 | 83 | 3.2 | 3.2 | 0.00 | 0.00 | 0.00 | 62 | 1014.6 |
| 20260505202933 | 20 | 194 | 3.2 | 3.2 | 0.00 | 0.00 | 0.00 | 62 | 1014.6 |
| 20260505202429 | 20 | 215 | 1.6 | 3.2 | 0.00 | 0.00 | 0.00 | 63 | 1014.9 |
| 20260505201926 | 19 | 115 | 4.8 | 6.4 | 0.00 | 0.00 | 0.00 | 63 | 1014.8 |
| 20260505201422 | 19 | 311 | 3.2 | 3.2 | 0.00 | 0.00 | 0.00 | 64 | 1014.9 |
| 20260505200921 | 20 | 137 | 6.4 | 11.3 | 0.00 | 0.00 | 0.00 | 62 | 1014.9 |
| 20260505200418 | 20 | 111 | 1.6 | 3.2 | 0.00 | 0.00 | 0.00 | 63 | 1014.7 |
| 20260505195913 | 20 | 143 | 3.2 | 4.8 | 0.00 | 0.00 | 0.00 | 63 | 1014.9 |
| 20260505195411 | 19 | 131 | 3.2 | 4.8 | 0.00 | 0.00 | 0.00 | 63 | 1015.0 |
| 20260505194908 | 20 | 130 | 3.2 | 3.2 | 0.00 | 0.00 | 0.00 | 64 | 1015.0 |
| 20260505194406 | 18 | 139 | 0.0 | 1.6 | 0.00 | 0.00 | 0.00 | 65 | 1014.9 |
| 20260505193905 | 20 | 254 | 4.8 | 4.8 | 0.00 | 0.00 | 0.00 | 64 | 1014.9 |
| 20260505193403 | 19 | 101 | 3.2 | 4.8 | 0.00 | 0.00 | 0.00 | 64 | 1014.8 |
| 20260505192901 | 19 | 49 | 4.8 | 6.4 | 0.00 | 0.00 | 0.00 | 63 | 1015.0 |
| 20260505192359 | 18 | 142 | 3.2 | 3.2 | 0.00 | 0.00 | 0.00 | 65 | 1015.1 |
| 20260505191856 | 18 | 196 | 6.4 | 9.7 | 0.00 | 0.00 | 0.00 | 66 | 1015.2 |
| 20260505191355 | 17 | 218 | 3.2 | 4.8 | 0.00 | 0.00 | 0.00 | 68 | 1015.2 |
| 20260505190851 | 17 | 246 | 8.0 | 11.3 | 0.00 | 0.00 | 0.00 | 68 | 1015.1 |
| 20260505190347 | 17 | 237 | 8.0 | 14.5 | 0.00 | 0.00 | 0.00 | 68 | 1015.4 |
| 20260505185842 | 17 | 213 | 4.8 | 9.7 | 0.00 | 0.00 | 0.00 | 70 | 1015.3 |
| 20260505185339 | 17 | 211 | 6.4 | 6.4 | 0.00 | 0.00 | 0.00 | 69 | 1015.2 |
| 20260505184835 | 17 | 215 | 9.7 | 12.9 | 0.00 | 0.00 | 0.00 | 69 | 1015.3 |
| 20260505184332 | 17 | 309 | 3.2 | 6.4 | 0.00 | 0.00 | 0.00 | 70 | 1015.2 |
| 20260505183829 | 17 | 127 | 3.2 | 3.2 | 0.00 | 0.00 | 0.00 | 70 | 1015.4 |
| 20260505183326 | 17 | 163 | 9.7 | 16.1 | 0.00 | 0.00 | 0.00 | 71 | 1015.1 |
| 20260505182823 | 17 | 110 | 1.6 | 1.6 | 0.00 | 0.00 | 0.00 | 70 | 1015.4 |
| 20260505182320 | 17 | 143 | 3.2 | 4.8 | 0.00 | 0.00 | 0.00 | 71 | 1015.4 |
| 20260505181817 | 17 | 223 | 3.2 | 6.4 | 0.00 | 0.00 | 0.00 | 71 | 1015.4 |
| 20260505181314 | 16 | 169 | 1.6 | 3.2 | 0.00 | 0.00 | 0.00 | 74 | 1015.5 |
| 20260505180810 | 16 | 117 | 1.6 | 3.2 | 0.00 | 0.00 | 0.00 | 74 | 1015.2 |
| 20260505180307 | 16 | 276 | 4.8 | 6.4 | 0.00 | 0.00 | 0.00 | 73 | 1015.3 |
| 20260505175803 | 16 | 186 | 4.8 | 6.4 | 0.00 | 0.00 | 0.00 | 74 | 1015.4 |
| 20260505175300 | 16 | 186 | 3.2 | 4.8 | 0.00 | 0.00 | 0.00 | 74 | 1015.3 |
| 20260505174756 | 16 | 283 | 3.2 | 3.2 | 0.00 | 0.00 | 0.00 | 74 | 1015.5 |
| 20260505174254 | 16 | 116 | 3.2 | 4.8 | 0.00 | 0.00 | 0.00 | 74 | 1015.5 |
| 20260505173749 | 16 | 146 | 0.0 | 1.6 | 0.00 | 0.00 | 0.00 | 75 | 1015.5 |
| 20260505173246 | 15 | 333 | 6.4 | 6.4 | 0.00 | 0.00 | 0.00 | 76 | 1015.3 |
| 20260505172743 | 15 | 157 | 3.2 | 4.8 | 0.00 | 0.00 | 0.00 | 76 | 1015.5 |
| 20260505172240 | 15 | 231 | 3.2 | 3.2 | 0.00 | 0.00 | 0.00 | 77 | 1015.2 |
| 20260505171740 | 15 | 220 | 9.7 | 12.9 | 0.00 | 0.00 | 0.00 | 76 | 1015.3 |
| 20260505171237 | 15 | 158 | 1.6 | 1.6 | 0.00 | 0.00 | 0.00 | 77 | 1015.3 |
| 20260505170734 | 15 | 132 | 3.2 | 4.8 | 0.00 | 0.00 | 0.00 | 77 | 1015.3 |
| 20260505170231 | 15 | 132 | 6.4 | 9.7 | 0.00 | 0.00 | 0.00 | 77 | 1015.1 |
| 20260505165726 | 15 | 127 | 3.2 | 3.2 | 0.00 | 0.00 | 0.00 | 77 | 1015.3 |
| 20260505165222 | 15 | 111 | 1.6 | 3.2 | 0.00 | 0.00 | 0.00 | 78 | 1015.3 |
| 20260505164718 | 15 | 208 | 1.6 | 3.2 | 0.00 | 0.00 | 0.00 | 77 | 1015.2 |
| 20260505164215 | 15 | 235 | 8.0 | 12.9 | 0.00 | 0.00 | 0.00 | 77 | 1015.1 |
| 20260505163714 | 15 | 211 | 4.8 | 6.4 | 0.00 | 0.00 | 0.00 | 77 | 1015.2 |
| 20260505163212 | 15 | 32 | 1.6 | 3.2 | 0.00 | 0.00 | 0.00 | 79 | 1015.3 |
| 20260505162709 | 15 | 301 | 1.6 | 3.2 | 0.00 | 0.00 | 0.00 | 77 | 1015.2 |
| 20260505162206 | 15 | 96 | 1.6 | 3.2 | 0.00 | 0.00 | 0.00 | 78 | 1015.3 |
| 20260505161703 | 15 | 62 | 1.6 | 1.6 | 0.00 | 0.00 | 0.00 | 79 | 1015.1 |
| 20260505161200 | 14 | 257 | 1.6 | 1.6 | 0.00 | 0.00 | 0.00 | 79 | 1014.8 |
| 20260505160658 | 14 | 89 | 3.2 | 3.2 | 0.00 | 0.00 | 0.00 | 79 | 1015.1 |
| 20260505160155 | 14 | 175 | 1.6 | 3.2 | 0.00 | 0.00 | 0.00 | 80 | 1015.2 |
| 20260505153134 | 14 | 117 | 1.6 | 1.6 | 0.00 | 0.00 | 0.00 | 80 | 1015.2 |
| 20260505152631 | 14 | 100 | 1.6 | 1.6 | 0.00 | 0.00 | 0.00 | 80 | 1014.9 |
| 20260505152127 | 13 | 189 | 3.2 | 4.8 | 0.00 | 0.00 | 0.00 | 80 | 1015.0 |
| 20260505151622 | 13 | 46 | 1.6 | 1.6 | 0.00 | 0.00 | 0.00 | 80 | 1014.9 |
| 20260505151120 | 14 | 301 | 4.8 | 4.8 | 0.00 | 0.00 | 0.00 | 80 | 1014.7 |
| 20260505150616 | 13 | 109 | 1.6 | 1.6 | 0.00 | 0.00 | 0.00 | 80 | 1014.8 |
| 20260505150113 | 14 | 93 | 0.0 | 0.0 | 0.00 | 0.00 | 0.00 | 80 | 1014.8 |
| 20260505140541 | 13 | 78 | 1.6 | 1.6 | 0.00 | 0.00 | 0.00 | 82 | 1014.5 |
| 20260505124955 | 13 | 165 | 1.6 | 3.2 | 0.00 | 0.00 | 0.00 | 82 | 1013.8 |
| 20260505124452 | 13 | 106 | 1.6 | 1.6 | 0.00 | 0.00 | 0.00 | 81 | 1013.8 |
| 20260505123948 | 13 | 121 | 0.0 | 0.0 | 0.00 | 0.00 | 0.00 | 81 | 1014.0 |
| 20260505123444 | 13 | 105 | 4.8 | 6.4 | 0.00 | 0.00 | 0.00 | 81 | 1014.0 |
| 20260505122940 | 13 | 113 | 1.6 | 3.2 | 0.00 | 0.00 | 0.00 | 81 | 1014.1 |
| 20260505122438 | 13 | 99 | 0.0 | 1.6 | 0.00 | 0.00 | 0.00 | 81 | 1013.9 |
| 20260505121934 | 13 | 125 | 1.6 | 1.6 | 0.00 | 0.00 | 0.00 | 81 | 1013.7 |
| 20260505121432 | 13 | 150 | 1.6 | 1.6 | 0.00 | 0.00 | 0.00 | 81 | 1013.9 |
| 20260505120927 | 13 | 215 | 3.2 | 4.8 | 0.00 | 0.00 | 0.00 | 81 | 1013.9 |
| 20260505120424 | 13 | 213 | 9.7 | 14.5 | 0.00 | 0.00 | 0.00 | 81 | 1013.9 |
| 20260505115923 | 13 | 80 | 3.2 | 4.8 | 0.00 | 0.00 | 0.00 | 80 | 1013.8 |
| 20260505115420 | 13 | 105 | 0.0 | 0.0 | 0.00 | 0.00 | 0.00 | 80 | 1013.9 |
| 20260505114918 | 13 | 227 | 4.8 | 4.8 | 0.00 | 0.00 | 0.00 | 79 | 1013.8 |
| 20260505114413 | 13 | 117 | 0.0 | 1.6 | 0.00 | 0.00 | 0.00 | 79 | 1013.9 |
| 20260505113910 | 13 | 105 | 6.4 | 6.4 | 0.00 | 0.00 | 0.00 | 79 | 1013.7 |
| 20260505113407 | 14 | 97 | 1.6 | 1.6 | 0.00 | 0.00 | 0.00 | 79 | 1013.8 |
| 20260505112903 | 14 | 128 | 1.6 | 1.6 | 0.00 | 0.00 | 0.00 | 79 | 1013.8 |
| 20260505112401 | 14 | 117 | 3.2 | 3.2 | 0.00 | 0.00 | 0.00 | 79 | 1013.6 |
| 20260505111856 | 14 | 92 | 4.8 | 9.7 | 0.00 | 0.00 | 0.00 | 79 | 1013.7 |
| 20260505111351 | 14 | 137 | 1.6 | 3.2 | 0.00 | 0.00 | 0.00 | 79 | 1013.7 |
| 20260505110847 | 14 | 116 | 0.0 | 1.6 | 0.00 | 0.00 | 0.00 | 79 | 1013.6 |
| 20260505110345 | 14 | 133 | 3.2 | 3.2 | 0.00 | 0.00 | 0.00 | 79 | 1013.3 |
| 20260505101815 | 15 | 70 | 1.6 | 1.6 | 0.00 | 0.00 | 0.00 | 78 | 1012.9 |
| 20260505101310 | 15 | 213 | 1.6 | 3.2 | 0.00 | 0.00 | 0.00 | 77 | 1012.9 |
| 20260505100806 | 15 | 257 | 9.7 | 16.1 | 0.00 | 0.00 | 0.00 | 77 | 1012.8 |
| 20260505100303 | 15 | 105 | 1.6 | 3.2 | 0.00 | 0.00 | 0.00 | 77 | 1012.8 |
| 20260505095759 | 15 | 127 | 3.2 | 3.2 | 0.00 | 0.00 | 0.00 | 77 | 1012.7 |
| 20260505095257 | 15 | 116 | 1.6 | 1.6 | 0.00 | 0.00 | 0.00 | 77 | 1012.7 |
| 20260505094752 | 15 | 198 | 4.8 | 6.4 | 0.00 | 0.00 | 0.00 | 76 | 1012.7 |
| 20260505094249 | 15 | 0 | 4.8 | 4.8 | 0.00 | 0.00 | 0.00 | 76 | 1012.7 |
| 20260505093745 | 15 | 158 | 3.2 | 6.4 | 0.00 | 0.00 | 0.00 | 76 | 1012.8 |
| 20260505093243 | 15 | 248 | 6.4 | 9.7 | 0.00 | 0.00 | 0.00 | 76 | 1012.8 |
| 20260505092739 | 15 | 119 | 3.2 | 3.2 | 0.00 | 0.00 | 0.00 | 76 | 1012.6 |
| 20260505092238 | 15 | 194 | 3.2 | 4.8 | 0.00 | 0.00 | 0.00 | 75 | 1012.6 |
| 20260505091735 | 16 | 125 | 1.6 | 1.6 | 0.00 | 0.00 | 0.00 | 75 | 1012.6 |
| 20260505091233 | 16 | 81 | 1.6 | 1.6 | 0.00 | 0.00 | 0.00 | 75 | 1012.4 |
| 20260505090730 | 16 | 200 | 1.6 | 3.2 | 0.00 | 0.00 | 0.00 | 75 | 1012.6 |
| 20260505090229 | 16 | 175 | 1.6 | 6.4 | 0.00 | 0.00 | 0.00 | 74 | 1012.2 |
| 20260505085725 | 16 | 137 | 1.6 | 1.6 | 0.00 | 0.00 | 0.00 | 74 | 1012.5 |
| 20260505085224 | 16 | 220 | 3.2 | 4.8 | 0.00 | 0.00 | 0.00 | 74 | 1012.3 |
| 20260505084721 | 16 | 233 | 0.0 | 1.6 | 0.00 | 0.00 | 0.00 | 74 | 1012.2 |
| 20260505084220 | 16 | 292 | 12.9 | 16.1 | 0.00 | 0.00 | 0.00 | 74 | 1012.0 |
| 20260505083716 | 16 | 79 | 0.0 | 0.0 | 0.00 | 0.00 | 0.00 | 74 | 1012.0 |
| 20260505083213 | 16 | 260 | 6.4 | 6.4 | 0.00 | 0.00 | 0.00 | 73 | 1011.9 |
| 20260505082709 | 16 | 118 | 0.0 | 0.0 | 0.00 | 0.00 | 0.00 | 73 | 1012.0 |
| 20260505082206 | 16 | 218 | 6.4 | 9.7 | 0.00 | 0.00 | 0.00 | 73 | 1011.8 |
| 20260505081702 | 16 | 185 | 8.0 | 11.3 | 0.00 | 0.00 | 0.00 | 73 | 1011.7 |
| 20260505081159 | 17 | 257 | 9.7 | 12.9 | 0.00 | 0.00 | 0.00 | 73 | 1011.8 |
| 20260505080656 | 17 | 206 | 4.8 | 6.4 | 0.00 | 0.00 | 0.00 | 72 | 1011.7 |
| 20260505080152 | 17 | 267 | 9.7 | 12.9 | 0.00 | 0.00 | 0.00 | 73 | 1011.6 |
| 20260505075648 | 17 | 215 | 9.7 | 11.3 | 0.00 | 0.00 | 0.00 | 73 | 1011.6 |
| 20260505075145 | 17 | 113 | 0.0 | 0.0 | 0.00 | 0.00 | 0.00 | 73 | 1011.9 |
| 20260505074642 | 17 | 63 | 3.2 | 4.8 | 0.00 | 0.00 | 0.00 | 74 | 1011.6 |
| 20260505074139 | 17 | 116 | 1.6 | 1.6 | 0.00 | 0.00 | 0.00 | 74 | 1011.6 |
| 20260505073637 | 17 | 269 | 3.2 | 3.2 | 0.00 | 0.00 | 0.00 | 74 | 1011.5 |
| 20260505073135 | 17 | 113 | 0.0 | 0.0 | 0.00 | 0.00 | 0.00 | 75 | 1011.5 |
| 20260505072630 | 17 | 125 | 1.6 | 1.6 | 0.00 | 0.00 | 0.00 | 74 | 1011.4 |
| 20260505072127 | 17 | 357 | 4.8 | 6.4 | 0.00 | 0.00 | 0.00 | 76 | 1011.5 |
| 20260505071623 | 17 | 92 | 0.0 | 0.0 | 0.00 | 0.00 | 0.00 | 75 | 1011.4 |
| 20260505071121 | 17 | 144 | 4.8 | 6.4 | 0.00 | 0.00 | 0.00 | 75 | 1011.2 |
| 20260505070618 | 18 | 209 | 1.6 | 3.2 | 0.00 | 0.00 | 0.00 | 74 | 1011.4 |
| 20260505070114 | 18 | 266 | 4.8 | 6.4 | 0.00 | 0.00 | 0.00 | 74 | 1011.4 |
| 20260505065610 | 18 | 149 | 3.2 | 3.2 | 0.00 | 0.00 | 0.00 | 74 | 1011.2 |
| 20260505065107 | 18 | 233 | 1.6 | 1.6 | 0.00 | 0.00 | 0.00 | 74 | 1011.0 |
| 20260505064603 | 18 | 152 | 6.4 | 11.3 | 0.00 | 0.00 | 0.00 | 74 | 1011.0 |
| 20260505064102 | 18 | 187 | 0.0 | 1.6 | 0.00 | 0.00 | 0.00 | 74 | 1010.9 |
| 20260505063559 | 18 | 211 | 4.8 | 6.4 | 0.00 | 0.00 | 0.00 | 74 | 1010.9 |
| 20260505063055 | 18 | 296 | 4.8 | 4.8 | 0.00 | 0.00 | 0.00 | 74 | 1011.0 |
| 20260505062551 | 18 | 104 | 3.2 | 3.2 | 0.00 | 0.00 | 0.00 | 74 | 1011.0 |
| 20260505062049 | 18 | 191 | 3.2 | 3.2 | 0.00 | 0.00 | 0.00 | 75 | 1011.2 |
| 20260505061546 | 18 | 85 | 1.6 | 1.6 | 0.00 | 0.00 | 0.00 | 74 | 1011.2 |
| 20260505061044 | 18 | 125 | 0.0 | 1.6 | 0.00 | 0.00 | 0.00 | 73 | 1011.0 |
| 20260505060541 | 18 | 212 | 3.2 | 3.2 | 0.00 | 0.00 | 0.00 | 73 | 1011.1 |
| 20260505060037 | 18 | 134 | 9.7 | 11.3 | 0.00 | 0.00 | 0.00 | 73 | 1010.9 |
| 20260505055532 | 18 | 124 | 1.6 | 3.2 | 0.00 | 0.00 | 0.00 | 72 | 1010.8 |
| 20260505055030 | 18 | 304 | 3.2 | 4.8 | 0.00 | 0.00 | 0.00 | 72 | 1011.0 |
| 20260505054527 | 18 | 220 | 4.8 | 4.8 | 0.00 | 0.00 | 0.00 | 72 | 1010.9 |
| 20260505054025 | 18 | 210 | 4.8 | 9.7 | 0.00 | 0.00 | 0.00 | 73 | 1011.0 |
| 20260505053522 | 18 | 165 | 3.2 | 3.2 | 0.00 | 0.00 | 0.00 | 73 | 1010.9 |
| 20260505053019 | 18 | 84 | 1.6 | 1.6 | 0.00 | 0.00 | 0.00 | 73 | 1011.0 |
| 20260505052516 | 19 | 284 | 6.4 | 11.3 | 0.00 | 0.00 | 0.00 | 72 | 1011.1 |
| 20260505052013 | 19 | 199 | 4.8 | 6.4 | 0.00 | 0.00 | 0.00 | 71 | 1010.8 |
| 20260505051510 | 19 | 146 | 1.6 | 1.6 | 0.00 | 0.00 | 0.00 | 72 | 1011.0 |
| 20260505051008 | 19 | 291 | 6.4 | 9.7 | 0.00 | 0.00 | 0.00 | 72 | 1010.7 |
| 20260505050506 | 18 | 74 | 3.2 | 4.8 | 0.00 | 0.00 | 0.00 | 72 | 1010.7 |
| 20260505041433 | 20 | 247 | 6.4 | 6.4 | 0.00 | 0.00 | 0.00 | 69 | 1010.1 |
| 20260505040931 | 20 | 127 | 3.2 | 4.8 | 0.00 | 0.00 | 0.00 | 69 | 1009.9 |
| 20260505040428 | 20 | 207 | 3.2 | 4.8 | 0.00 | 0.00 | 0.00 | 68 | 1010.1 |
| 20260505035925 | 20 | 201 | 3.2 | 3.2 | 0.00 | 0.00 | 0.00 | 67 | 1010.1 |
| 20260505035421 | 20 | 223 | 3.2 | 3.2 | 0.00 | 0.00 | 0.00 | 67 | 1009.9 |
| 20260505034918 | 20 | 125 | 1.6 | 3.2 | 0.00 | 0.00 | 0.00 | 66 | 1009.8 |